sensor_id;sensor_type;location;lat;lon;timestamp;P1;durP1;ratioP1;P2;durP2;ratioP2
59314;SDS011;46521;50.160;20.802;2023-02-08T00:08:34;54.70;;;29.70;;
59314;SDS011;46521;50.160;20.802;2023-02-08T00:18:36;61.45;;;30.20;;
59314;SDS011;46521;50.160;20.802;2023-02-08T00:28:38;61.35;;;30.25;;
59314;SDS011;46521;50.160;20.802;2023-02-08T00:38:39;61.47;;;29.57;;
59314;SDS011;46521;50.160;20.802;2023-02-08T00:48:41;57.15;;;28.95;;
59314;SDS011;46521;50.160;20.802;2023-02-08T00:58:42;59.30;;;29.30;;
59314;SDS011;46521;50.160;20.802;2023-02-08T01:08:44;57.05;;;29.40;;
59314;SDS011;46521;50.160;20.802;2023-02-08T01:18:47;58.13;;;29.50;;
59314;SDS011;46521;50.160;20.802;2023-02-08T01:28:51;62.40;;;31.77;;
59314;SDS011;46521;50.160;20.802;2023-02-08T01:38:54;53.23;;;28.70;;
59314;SDS011;46521;50.160;20.802;2023-02-08T01:48:57;61.10;;;30.80;;
59314;SDS011;46521;50.160;20.802;2023-02-08T01:59:05;63.10;;;29.95;;
59314;SDS011;46521;50.160;20.802;2023-02-08T02:09:13;64.30;;;30.90;;
59314;SDS011;46521;50.160;20.802;2023-02-08T02:40:14;57.90;;;27.20;;
59314;SDS011;46521;50.160;20.802;2023-02-08T03:00:38;55.70;;;26.57;;
59314;SDS011;46521;50.160;20.802;2023-02-08T03:10:45;47.57;;;26.63;;
59314;SDS011;46521;50.160;20.802;2023-02-08T03:31:24;47.00;;;25.20;;
59314;SDS011;46521;50.160;20.802;2023-02-08T03:41:33;47.83;;;24.57;;
59314;SDS011;46521;50.160;20.802;2023-02-08T03:51:38;49.53;;;25.17;;
59314;SDS011;46521;50.160;20.802;2023-02-08T04:01:45;48.40;;;25.50;;
59314;SDS011;46521;50.160;20.802;2023-02-08T04:11:56;52.00;;;27.15;;
59314;SDS011;46521;50.160;20.802;2023-02-08T04:21:58;48.67;;;27.07;;
59314;SDS011;46521;50.160;20.802;2023-02-08T04:31:59;46.90;;;24.80;;
59314;SDS011;46521;50.160;20.802;2023-02-08T04:42:02;45.87;;;24.17;;
59314;SDS011;46521;50.160;20.802;2023-02-08T04:52:04;42.83;;;22.90;;
59314;SDS011;46521;50.160;20.802;2023-02-08T05:02:06;46.60;;;22.95;;
59314;SDS011;46521;50.160;20.802;2023-02-08T05:12:07;49.10;;;24.30;;
59314;SDS011;46521;50.160;20.802;2023-02-08T05:22:08;49.47;;;25.67;;
59314;SDS011;46521;50.160;20.802;2023-02-08T05:32:10;49.25;;;26.15;;
59314;SDS011;46521;50.160;20.802;2023-02-08T05:42:12;45.90;;;23.55;;
59314;SDS011;46521;50.160;20.802;2023-02-08T05:52:13;46.75;;;24.15;;
59314;SDS011;46521;50.160;20.802;2023-02-08T06:02:15;46.65;;;25.15;;
59314;SDS011;46521;50.160;20.802;2023-02-08T06:12:17;48.90;;;24.30;;
59314;SDS011;46521;50.160;20.802;2023-02-08T06:22:18;50.45;;;24.75;;
59314;SDS011;46521;50.160;20.802;2023-02-08T06:32:20;57.65;;;28.85;;
59314;SDS011;46521;50.160;20.802;2023-02-08T06:42:21;50.10;;;25.60;;
59314;SDS011;46521;50.160;20.802;2023-02-08T06:52:24;48.00;;;24.80;;
59314;SDS011;46521;50.160;20.802;2023-02-08T07:02:25;44.60;;;22.90;;
59314;SDS011;46521;50.160;20.802;2023-02-08T07:12:27;98.50;;;53.40;;
59314;SDS011;46521;50.160;20.802;2023-02-08T07:22:28;55.20;;;31.00;;
59314;SDS011;46521;50.160;20.802;2023-02-08T07:32:30;58.00;;;33.10;;
59314;SDS011;46521;50.160;20.802;2023-02-08T07:42:32;62.80;;;31.35;;
59314;SDS011;46521;50.160;20.802;2023-02-08T07:52:33;41.50;;;25.00;;
59314;SDS011;46521;50.160;20.802;2023-02-08T08:02:35;42.60;;;23.20;;
59314;SDS011;46521;50.160;20.802;2023-02-08T08:12:36;44.55;;;24.65;;
59314;SDS011;46521;50.160;20.802;2023-02-08T08:22:37;41.40;;;24.95;;
59314;SDS011;46521;50.160;20.802;2023-02-08T08:32:39;40.00;;;21.50;;
59314;SDS011;46521;50.160;20.802;2023-02-08T08:42:41;27.75;;;14.95;;
59314;SDS011;46521;50.160;20.802;2023-02-08T08:52:42;20.50;;;11.30;;
59314;SDS011;46521;50.160;20.802;2023-02-08T09:02:44;18.80;;;9.80;;
59314;SDS011;46521;50.160;20.802;2023-02-08T09:12:45;19.20;;;10.05;;
59314;SDS011;46521;50.160;20.802;2023-02-08T09:22:47;15.30;;;7.05;;
59314;SDS011;46521;50.160;20.802;2023-02-08T09:32:48;14.80;;;7.60;;
59314;SDS011;46521;50.160;20.802;2023-02-08T09:43:08;12.30;;;6.60;;
59314;SDS011;46521;50.160;20.802;2023-02-08T09:53:23;13.55;;;7.30;;
59314;SDS011;46521;50.160;20.802;2023-02-08T10:03:36;16.50;;;8.10;;
59314;SDS011;46521;50.160;20.802;2023-02-08T10:13:56;14.20;;;8.00;;
59314;SDS011;46521;50.160;20.802;2023-02-08T10:24:35;16.95;;;9.50;;
59314;SDS011;46521;50.160;20.802;2023-02-08T10:55:24;18.10;;;10.10;;
59314;SDS011;46521;50.160;20.802;2023-02-08T11:05:33;18.45;;;10.40;;
59314;SDS011;46521;50.160;20.802;2023-02-08T11:25:47;27.90;;;13.90;;
59314;SDS011;46521;50.160;20.802;2023-02-08T11:35:53;16.40;;;9.10;;
59314;SDS011;46521;50.160;20.802;2023-02-08T11:45:57;15.95;;;9.25;;
59314;SDS011;46521;50.160;20.802;2023-02-08T11:56:05;10.80;;;5.70;;
59314;SDS011;46521;50.160;20.802;2023-02-08T12:27:37;15.05;;;7.10;;
59314;SDS011;46521;50.160;20.802;2023-02-08T12:37:42;13.75;;;7.90;;
59314;SDS011;46521;50.160;20.802;2023-02-08T12:48:31;13.65;;;8.00;;
59314;SDS011;46521;50.160;20.802;2023-02-08T12:58:55;15.00;;;7.30;;
59314;SDS011;46521;50.160;20.802;2023-02-08T13:29:39;15.10;;;8.05;;
59314;SDS011;46521;50.160;20.802;2023-02-08T13:39:41;30.45;;;13.90;;
59314;SDS011;46521;50.160;20.802;2023-02-08T14:20:37;13.80;;;7.70;;
59314;SDS011;46521;50.160;20.802;2023-02-08T14:30:41;15.45;;;7.75;;
59314;SDS011;46521;50.160;20.802;2023-02-08T14:40:53;16.45;;;7.80;;
59314;SDS011;46521;50.160;20.802;2023-02-08T15:01:16;20.00;;;10.70;;
59314;SDS011;46521;50.160;20.802;2023-02-08T15:11:25;16.45;;;8.45;;
59314;SDS011;46521;50.160;20.802;2023-02-08T15:21:30;18.90;;;9.20;;
59314;SDS011;46521;50.160;20.802;2023-02-08T15:31:36;17.87;;;10.03;;
59314;SDS011;46521;50.160;20.802;2023-02-08T15:41:37;19.30;;;10.45;;
59314;SDS011;46521;50.160;20.802;2023-02-08T15:51:39;22.70;;;11.90;;
59314;SDS011;46521;50.160;20.802;2023-02-08T16:01:44;28.90;;;15.40;;
59314;SDS011;46521;50.160;20.802;2023-02-08T16:21:50;58.50;;;27.40;;
59314;SDS011;46521;50.160;20.802;2023-02-08T16:42:18;44.07;;;22.20;;
59314;SDS011;46521;50.160;20.802;2023-02-08T16:52:36;61.55;;;32.95;;
59314;SDS011;46521;50.160;20.802;2023-02-08T17:02:38;67.25;;;35.00;;
59314;SDS011;46521;50.160;20.802;2023-02-08T17:12:40;50.85;;;27.90;;
59314;SDS011;46521;50.160;20.802;2023-02-08T17:22:42;71.60;;;38.80;;
59314;SDS011;46521;50.160;20.802;2023-02-08T17:32:44;51.70;;;27.70;;
59314;SDS011;46521;50.160;20.802;2023-02-08T17:42:45;66.80;;;34.30;;
59314;SDS011;46521;50.160;20.802;2023-02-08T17:52:47;72.45;;;38.35;;
59314;SDS011;46521;50.160;20.802;2023-02-08T18:02:50;55.45;;;31.60;;
59314;SDS011;46521;50.160;20.802;2023-02-08T18:12:53;86.90;;;42.07;;
59314;SDS011;46521;50.160;20.802;2023-02-08T18:22:55;48.43;;;25.13;;
59314;SDS011;46521;50.160;20.802;2023-02-08T18:32:57;48.97;;;24.37;;
59314;SDS011;46521;50.160;20.802;2023-02-08T18:42:58;46.80;;;25.40;;
59314;SDS011;46521;50.160;20.802;2023-02-08T18:53:03;50.30;;;25.00;;
59314;SDS011;46521;50.160;20.802;2023-02-08T19:03:05;53.30;;;28.00;;
59314;SDS011;46521;50.160;20.802;2023-02-08T19:13:08;53.00;;;26.30;;
59314;SDS011;46521;50.160;20.802;2023-02-08T19:23:10;84.85;;;42.15;;
59314;SDS011;46521;50.160;20.802;2023-02-08T19:33:11;90.30;;;40.90;;
59314;SDS011;46521;50.160;20.802;2023-02-08T19:43:13;71.80;;;37.90;;
59314;SDS011;46521;50.160;20.802;2023-02-08T19:53:14;72.30;;;38.30;;
59314;SDS011;46521;50.160;20.802;2023-02-08T20:03:16;72.30;;;38.90;;
59314;SDS011;46521;50.160;20.802;2023-02-08T20:13:17;80.10;;;37.40;;
59314;SDS011;46521;50.160;20.802;2023-02-08T20:23:19;68.90;;;34.80;;
59314;SDS011;46521;50.160;20.802;2023-02-08T20:33:21;72.60;;;35.40;;
59314;SDS011;46521;50.160;20.802;2023-02-08T20:43:23;95.30;;;44.40;;
59314;SDS011;46521;50.160;20.802;2023-02-08T20:53:24;85.60;;;41.35;;
59314;SDS011;46521;50.160;20.802;2023-02-08T21:03:26;85.97;;;41.20;;
59314;SDS011;46521;50.160;20.802;2023-02-08T21:13:28;98.47;;;43.30;;
59314;SDS011;46521;50.160;20.802;2023-02-08T21:23:30;80.43;;;37.80;;
59314;SDS011;46521;50.160;20.802;2023-02-08T21:33:31;74.35;;;37.10;;
59314;SDS011;46521;50.160;20.802;2023-02-08T21:43:34;87.90;;;41.90;;
59314;SDS011;46521;50.160;20.802;2023-02-08T21:53:37;99.80;;;45.00;;
59314;SDS011;46521;50.160;20.802;2023-02-08T22:03:57;99.40;;;47.70;;
59314;SDS011;46521;50.160;20.802;2023-02-08T22:13:58;90.60;;;44.90;;
59314;SDS011;46521;50.160;20.802;2023-02-08T22:24:00;99.90;;;46.40;;
59314;SDS011;46521;50.160;20.802;2023-02-08T22:34:01;107.80;;;50.10;;
59314;SDS011;46521;50.160;20.802;2023-02-08T22:44:03;102.93;;;46.77;;
59314;SDS011;46521;50.160;20.802;2023-02-08T22:54:05;110.67;;;51.77;;
59314;SDS011;46521;50.160;20.802;2023-02-08T23:04:06;81.00;;;39.70;;
59314;SDS011;46521;50.160;20.802;2023-02-08T23:14:08;81.00;;;42.03;;
59314;SDS011;46521;50.160;20.802;2023-02-08T23:24:10;92.00;;;45.70;;
59314;SDS011;46521;50.160;20.802;2023-02-08T23:34:12;83.60;;;40.50;;
59314;SDS011;46521;50.160;20.802;2023-02-08T23:44:13;75.73;;;38.03;;
